Brunehault, Belgium
Current Conditions -  °F | °C
As of 9:50 AM on Monday 22 Dec 2014 (Local Time) from EBCI Reporting Station
Drizzle Drizzle  
Wind Chill:   Ceiling: 800
Heat Index:   Visibility: 2.5mi
Dew Point:   Wind: 21mph
Humidity: 93%   Direction: 210°SSW
Pressure: 30.24"   Gusts: NA
Location:  50.51°N, 4.43°E
Report Text: EBCI 220850Z 21018KT 4000 -DZ BKN008 07/06 Q1024 TEMPO 23020G35KT
Loading
Personal Weather Stations






























Interactive Weather Map New forecast layout! Learn more

10-Day Weather Forecast

Advertisements
Track Severe Weather on mobile